Time;durP1;ratioP1;P1;durP2;ratioP2;P2;SDS_P1;SDS_P2;PMS_P1;PMS_P2;Temp;Humidity;BMP_temperature;BMP_pressure;BME280_temperature;BME280_humidity;BME280_pressure;Samples;Min_cycle;Max_cycle;Signal;HPM_P1;HPM_P2
2023/06/21 00:01:53;;;;;;;4.47;3.70;;;;;;;;;;5079850;28;20467;-74
2023/06/21 00:04:19;;;;;;;4.50;4.10;;;;;;;;;;5079234;28;20386;-74
2023/06/21 00:06:51;;;;;;;4.37;3.67;;;;;;;;;;5079053;28;20399;-74
2023/06/21 00:09:17;;;;;;;4.77;4.33;;;;;;;;;;5078387;28;20925;-74
2023/06/21 00:11:43;;;;;;;5.37;3.87;;;;;;;;;;5079367;28;20760;-74
2023/06/21 00:14:09;;;;;;;8.13;4.97;;;;;;;;;;5079117;28;20899;-74
2023/06/21 00:16:35;;;;;;;4.20;3.87;;;;;;;;;;5079095;28;20495;-74
2023/06/21 00:19:01;;;;;;;4.23;3.70;;;;;;;;;;5078581;28;20446;-74
2023/06/21 00:21:27;;;;;;;4.90;4.50;;;;;;;;;;5078183;28;20461;-74
2023/06/21 00:23:53;;;;;;;3.73;3.40;;;;;;;;;;5078468;28;20404;-74
2023/06/21 00:26:18;;;;;;;4.93;4.20;;;;;;;;;;5078476;28;20418;-74
2023/06/21 00:28:44;;;;;;;6.60;4.53;;;;;;;;;;5078258;28;20378;-74
2023/06/21 00:31:10;;;;;;;4.73;4.33;;;;;;;;;;5078960;28;20468;-74
2023/06/21 00:33:37;;;;;;;5.50;4.17;;;;;;;;;;5078490;28;20399;-74
2023/06/21 00:36:03;;;;;;;4.07;3.67;;;;;;;;;;5070302;28;20955;-74
2023/06/21 00:38:34;;;;;;;6.07;4.27;;;;;;;;;;5058630;28;20415;-74
2023/06/21 00:41:01;;;;;;;4.63;4.10;;;;;;;;;;5058632;28;20466;-74
2023/06/21 00:43:27;;;;;;;5.67;4.60;;;;;;;;;;5058309;28;20390;-74
2023/06/21 00:45:54;;;;;;;5.63;4.93;;;;;;;;;;5058468;28;20404;-74
2023/06/21 00:48:20;;;;;;;4.60;4.20;;;;;;;;;;5058838;28;20489;-74
2023/06/21 00:50:46;;;;;;;4.43;4.03;;;;;;;;;;5057832;28;20419;-74
2023/06/21 00:53:12;;;;;;;4.23;3.77;;;;;;;;;;5058295;28;20385;-74
2023/06/21 00:55:40;;;;;;;5.93;4.70;;;;;;;;;;5058394;28;20382;-74
2023/06/21 00:58:08;;;;;;;4.20;3.80;;;;;;;;;;5058113;28;20412;-74
2023/06/21 01:00:35;;;;;;;4.30;3.90;;;;;;;;;;5057681;28;20437;-74
2023/06/21 01:03:01;;;;;;;5.47;4.53;;;;;;;;;;5057917;28;20549;-74
2023/06/21 01:05:30;;;;;;;5.57;4.30;;;;;;;;;;5058374;28;20408;-74
2023/06/21 01:08:05;;;;;;;5.07;4.57;;;;;;;;;;5057462;28;20915;-73
2023/06/21 01:10:36;;;;;;;4.97;4.47;;;;;;;;;;5057621;28;20489;-74
2023/06/21 01:13:06;;;;;;;5.17;4.20;;;;;;;;;;5057682;28;20410;-74
2023/06/21 01:15:58;;;;;;;5.30;4.80;;;;;;;;;;5057980;28;20381;-77
2023/06/21 01:18:26;;;;;;;4.93;4.50;;;;;;;;;;5054086;28;20399;-74
2023/06/21 01:20:57;;;;;;;5.20;4.63;;;;;;;;;;5057347;28;20464;-74
2023/06/21 01:23:41;;;;;;;5.53;4.63;;;;;;;;;;5057843;28;20462;-74
2023/06/21 01:26:07;;;;;;;4.60;4.20;;;;;;;;;;5057969;28;20400;-74
2023/06/21 01:28:52;;;;;;;5.77;4.90;;;;;;;;;;5057396;28;20394;-76
2023/06/21 01:31:18;;;;;;;5.23;4.73;;;;;;;;;;5057445;28;20769;-74
2023/06/21 01:33:44;;;;;;;6.30;5.10;;;;;;;;;;5057652;28;20392;-74
2023/06/21 01:36:10;;;;;;;4.90;4.50;;;;;;;;;;5057314;28;20510;-74
2023/06/21 01:38:37;;;;;;;6.27;4.33;;;;;;;;;;5057519;28;20412;-74
2023/06/21 01:41:03;;;;;;;4.80;4.40;;;;;;;;;;5056646;28;20462;-74
2023/06/21 01:43:30;;;;;;;5.63;4.27;;;;;;;;;;5056999;28;20908;-74
2023/06/21 01:45:57;;;;;;;6.20;4.37;;;;;;;;;;5057106;28;20433;-74
2023/06/21 01:48:23;;;;;;;5.07;4.13;;;;;;;;;;5057530;28;20371;-74
2023/06/21 01:50:50;;;;;;;5.83;4.00;;;;;;;;;;5057437;28;20416;-74
2023/06/21 01:53:17;;;;;;;4.60;4.10;;;;;;;;;;5039279;28;20391;-74
2023/06/21 01:55:45;;;;;;;4.50;4.10;;;;;;;;;;5056849;28;20460;-74
2023/06/21 01:58:12;;;;;;;5.73;4.47;;;;;;;;;;5056782;28;20379;-74
2023/06/21 02:00:38;;;;;;;4.73;4.13;;;;;;;;;;5056651;28;20462;-74
2023/06/21 02:03:07;;;;;;;4.50;4.03;;;;;;;;;;5056928;28;20412;-74
2023/06/21 02:05:34;;;;;;;6.17;4.27;;;;;;;;;;5057378;28;20468;-74
2023/06/21 02:08:00;;;;;;;5.60;4.70;;;;;;;;;;5056305;28;20506;-74
2023/06/21 02:10:27;;;;;;;6.70;3.80;;;;;;;;;;5056728;28;20423;-74
2023/06/21 02:12:53;;;;;;;8.83;4.30;;;;;;;;;;5056408;28;20408;-74
2023/06/21 02:15:20;;;;;;;5.47;4.97;;;;;;;;;;5056992;28;20412;-73
2023/06/21 02:17:49;;;;;;;4.87;4.17;;;;;;;;;;5056388;28;20424;-74
2023/06/21 02:20:19;;;;;;;4.57;4.17;;;;;;;;;;5056326;28;20463;-74
2023/06/21 02:22:46;;;;;;;5.20;4.50;;;;;;;;;;5056026;28;20408;-74
2023/06/21 02:25:12;;;;;;;5.03;4.40;;;;;;;;;;5056809;28;20486;-74
2023/06/21 02:27:39;;;;;;;4.97;4.47;;;;;;;;;;5056085;28;20414;-74
2023/06/21 02:30:05;;;;;;;4.63;4.23;;;;;;;;;;5056412;28;20462;-74
2023/06/21 02:32:31;;;;;;;6.47;4.87;;;;;;;;;;5056181;28;20435;-73
2023/06/21 02:34:59;;;;;;;5.90;5.33;;;;;;;;;;5056120;28;20390;-74
2023/06/21 02:37:25;;;;;;;4.57;4.17;;;;;;;;;;5056329;28;20452;-74
2023/06/21 02:39:51;;;;;;;5.80;5.17;;;;;;;;;;5055952;28;20482;-74
2023/06/21 02:42:17;;;;;;;6.70;4.73;;;;;;;;;;5056052;28;20876;-74
2023/06/21 02:44:43;;;;;;;5.50;5.00;;;;;;;;;;5056216;28;20378;-74
2023/06/21 02:47:08;;;;;;;5.40;4.90;;;;;;;;;;5056009;28;20416;-74
2023/06/21 02:49:36;;;;;;;5.23;4.73;;;;;;;;;;5055818;28;20770;-74
2023/06/21 02:52:03;;;;;;;4.40;4.00;;;;;;;;;;5055860;28;20823;-74
2023/06/21 02:54:29;;;;;;;5.80;4.90;;;;;;;;;;5054990;28;20401;-74
2023/06/21 02:56:55;;;;;;;5.13;4.63;;;;;;;;;;5056146;28;20432;-74
2023/06/21 02:59:21;;;;;;;4.53;4.13;;;;;;;;;;5056216;28;20470;-74
2023/06/21 03:01:48;;;;;;;5.03;4.50;;;;;;;;;;5055936;28;20466;-74
2023/06/21 03:04:17;;;;;;;5.13;4.63;;;;;;;;;;5055923;28;20784;-74
2023/06/21 03:06:43;;;;;;;5.40;4.90;;;;;;;;;;5055639;28;20375;-74
2023/06/21 03:09:09;;;;;;;5.63;5.03;;;;;;;;;;5055974;28;20378;-74
2023/06/21 03:11:35;;;;;;;5.67;4.70;;;;;;;;;;5055981;28;20771;-74
2023/06/21 03:14:01;;;;;;;8.23;5.23;;;;;;;;;;5055742;28;20419;-74
2023/06/21 03:16:27;;;;;;;8.50;4.90;;;;;;;;;;5056153;28;20408;-74
2023/06/21 03:18:53;;;;;;;5.97;4.80;;;;;;;;;;5055729;28;20404;-74
2023/06/21 03:21:22;;;;;;;4.90;4.40;;;;;;;;;;5056164;28;20413;-74
2023/06/21 03:23:48;;;;;;;5.67;5.10;;;;;;;;;;5055344;28;20438;-74
2023/06/21 03:26:14;;;;;;;6.70;4.53;;;;;;;;;;5055611;28;20733;-74
2023/06/21 03:28:41;;;;;;;5.10;4.60;;;;;;;;;;5055938;28;20400;-74
2023/06/21 03:31:07;;;;;;;4.50;4.03;;;;;;;;;;5055926;28;20818;-74
2023/06/21 03:33:33;;;;;;;5.20;4.70;;;;;;;;;;5055968;28;20728;-73
2023/06/21 03:35:59;;;;;;;5.00;4.57;;;;;;;;;;5055243;28;20460;-74
2023/06/21 03:38:25;;;;;;;6.67;5.97;;;;;;;;;;5055762;28;20855;-74
2023/06/21 03:40:51;;;;;;;6.10;5.60;;;;;;;;;;5055406;28;20457;-74
2023/06/21 03:43:17;;;;;;;5.60;5.10;;;;;;;;;;5055728;28;20418;-74
2023/06/21 03:45:43;;;;;;;5.50;5.00;;;;;;;;;;5055315;28;20419;-74
2023/06/21 03:48:09;;;;;;;5.60;4.90;;;;;;;;;;5055593;28;20434;-74
2023/06/21 03:50:35;;;;;;;6.33;5.00;;;;;;;;;;5055253;28;20942;-74
2023/06/21 03:53:01;;;;;;;6.20;5.60;;;;;;;;;;5055163;28;20387;-74
2023/06/21 03:55:27;;;;;;;7.13;5.80;;;;;;;;;;5055813;28;20371;-74
2023/06/21 03:57:53;;;;;;;6.73;6.13;;;;;;;;;;5055510;28;20390;-73
2023/06/21 04:00:19;;;;;;;6.70;5.60;;;;;;;;;;5055782;28;20429;-74
2023/06/21 04:02:45;;;;;;;6.20;5.70;;;;;;;;;;5055487;28;20419;-74
2023/06/21 04:05:11;;;;;;;5.60;5.10;;;;;;;;;;5057091;28;20465;-74
2023/06/21 04:07:38;;;;;;;7.73;6.00;;;;;;;;;;5059195;28;20366;-74
2023/06/21 04:10:04;;;;;;;6.33;5.73;;;;;;;;;;5059230;28;20768;-74
2023/06/21 04:12:31;;;;;;;5.80;5.20;;;;;;;;;;5059077;28;20412;-74
2023/06/21 04:15:00;;;;;;;6.47;5.80;;;;;;;;;;5059049;28;20412;-74
2023/06/21 04:17:27;;;;;;;8.20;5.93;;;;;;;;;;5059097;28;20394;-73
2023/06/21 04:19:53;;;;;;;7.23;6.17;;;;;;;;;;5058562;28;20840;-74
2023/06/21 04:22:23;;;;;;;7.00;6.10;;;;;;;;;;5059359;28;20379;-74
2023/06/21 04:24:49;;;;;;;7.00;6.33;;;;;;;;;;5059201;28;20400;-74
2023/06/21 04:27:15;;;;;;;6.93;6.27;;;;;;;;;;5058870;28;20387;-73
2023/06/21 04:29:41;;;;;;;9.20;5.93;;;;;;;;;;5058823;28;20573;-74
2023/06/21 04:32:10;;;;;;;7.03;6.37;;;;;;;;;;5058612;28;20408;-74
2023/06/21 04:34:36;;;;;;;14.07;6.03;;;;;;;;;;5058385;28;20394;-74
2023/06/21 04:37:06;;;;;;;9.73;6.20;;;;;;;;;;5058615;28;20459;-74
2023/06/21 04:39:32;;;;;;;7.43;6.13;;;;;;;;;;5058773;28;20456;-74
2023/06/21 04:41:58;;;;;;;7.87;6.80;;;;;;;;;;5058615;28;20404;-74
2023/06/21 04:44:27;;;;;;;9.03;6.07;;;;;;;;;;5058595;28;20922;-74
2023/06/21 04:46:53;;;;;;;7.63;5.80;;;;;;;;;;5058116;28;20485;-74
2023/06/21 04:49:19;;;;;;;6.73;6.07;;;;;;;;;;5040828;28;20890;-74
2023/06/21 04:51:45;;;;;;;8.37;7.40;;;;;;;;;;5058121;28;20408;-76
2023/06/21 04:54:11;;;;;;;6.67;6.07;;;;;;;;;;5058726;28;20449;-74
2023/06/21 04:56:37;;;;;;;7.77;6.60;;;;;;;;;;5040686;28;20424;-74
2023/06/21 04:59:04;;;;;;;14.67;6.70;;;;;;;;;;5057846;28;20416;-74
2023/06/21 05:01:31;;;;;;;6.80;6.13;;;;;;;;;;5058250;28;20391;-74
2023/06/21 05:03:57;;;;;;;6.87;6.27;;;;;;;;;;5058237;28;20396;-74
2023/06/21 05:06:25;;;;;;;7.37;6.63;;;;;;;;;;5058125;28;20477;-74
2023/06/21 05:08:51;;;;;;;6.93;6.27;;;;;;;;;;5057272;28;20403;-74
2023/06/21 05:11:19;;;;;;;10.30;6.10;;;;;;;;;;5058184;28;20425;-74
2023/06/21 05:13:45;;;;;;;8.07;6.73;;;;;;;;;;5057898;28;20409;-74
2023/06/21 05:16:11;;;;;;;7.40;6.50;;;;;;;;;;5056810;28;20404;-74
2023/06/21 05:18:38;;;;;;;10.27;7.23;;;;;;;;;;5058380;28;20503;-74
2023/06/21 05:21:04;;;;;;;8.13;6.70;;;;;;;;;;5057715;28;20467;-74
2023/06/21 05:23:30;;;;;;;11.33;6.50;;;;;;;;;;5058168;28;20439;-74
2023/06/21 05:25:56;;;;;;;8.80;6.60;;;;;;;;;;5057099;28;20739;-74
2023/06/21 05:28:22;;;;;;;9.60;7.30;;;;;;;;;;5057185;28;20431;-74
2023/06/21 05:30:48;;;;;;;7.87;7.07;;;;;;;;;;5057155;28;20884;-75
2023/06/21 05:33:14;;;;;;;11.90;7.10;;;;;;;;;;5058809;28;20496;-74
2023/06/21 05:35:41;;;;;;;8.77;7.37;;;;;;;;;;5046966;28;20451;-74
2023/06/21 05:38:08;;;;;;;10.27;8.10;;;;;;;;;;5077171;28;20410;-74
2023/06/21 05:40:34;;;;;;;8.67;7.10;;;;;;;;;;5077142;28;20462;-74
2023/06/21 05:43:05;;;;;;;11.53;6.90;;;;;;;;;;5076851;28;20496;-75
2023/06/21 05:45:31;;;;;;;11.43;7.93;;;;;;;;;;5076508;28;20513;-74
2023/06/21 05:48:00;;;;;;;11.30;6.70;;;;;;;;;;5077141;28;20393;-74
2023/06/21 05:50:30;;;;;;;8.73;6.70;;;;;;;;;;5076572;28;20411;-74
2023/06/21 05:52:56;;;;;;;13.37;7.90;;;;;;;;;;5076927;28;20389;-74
2023/06/21 05:55:22;;;;;;;10.70;7.13;;;;;;;;;;5077312;28;20418;-74
2023/06/21 05:57:49;;;;;;;14.97;7.83;;;;;;;;;;5076674;28;20385;-74
2023/06/21 06:00:16;;;;;;;8.60;6.80;;;;;;;;;;5077136;28;20459;-74
2023/06/21 06:02:42;;;;;;;9.67;7.33;;;;;;;;;;5076823;28;20394;-74
2023/06/21 06:05:11;;;;;;;10.33;7.67;;;;;;;;;;5076628;28;20414;-74
2023/06/21 06:07:37;;;;;;;10.57;8.60;;;;;;;;;;5076674;28;20403;-74
2023/06/21 06:10:04;;;;;;;8.80;6.87;;;;;;;;;;5076469;28;20454;-74
2023/06/21 06:12:30;;;;;;;10.87;7.83;;;;;;;;;;5076605;28;20978;-74
2023/06/21 06:14:56;;;;;;;12.57;8.10;;;;;;;;;;5076096;28;20412;-74
2023/06/21 06:17:22;;;;;;;14.43;7.73;;;;;;;;;;5076689;28;20487;-74
2023/06/21 06:19:48;;;;;;;9.60;7.80;;;;;;;;;;5075961;28;20494;-74
2023/06/21 06:22:14;;;;;;;9.20;7.80;;;;;;;;;;5076292;28;20407;-74
2023/06/21 06:24:40;;;;;;;8.77;7.27;;;;;;;;;;5076469;28;20452;-74
2023/06/21 06:27:06;;;;;;;8.10;6.53;;;;;;;;;;5074836;28;20427;-74
2023/06/21 06:29:32;;;;;;;9.77;7.47;;;;;;;;;;5076511;28;20415;-74
2023/06/21 06:31:58;;;;;;;10.50;7.13;;;;;;;;;;5076173;28;20762;-74
2023/06/21 06:34:24;;;;;;;11.83;6.60;;;;;;;;;;5076457;28;20498;-74
2023/06/21 06:36:50;;;;;;;11.90;6.70;;;;;;;;;;5061176;28;20786;-74
2023/06/21 06:39:16;;;;;;;8.40;7.50;;;;;;;;;;5055874;28;20509;-74
2023/06/21 06:41:42;;;;;;;11.60;7.37;;;;;;;;;;5038213;28;21022;-73
2023/06/21 06:44:08;;;;;;;9.90;7.53;;;;;;;;;;5056039;28;20439;-74
2023/06/21 06:46:34;;;;;;;11.43;7.90;;;;;;;;;;5056487;28;20412;-74
2023/06/21 06:49:00;;;;;;;8.47;7.00;;;;;;;;;;5055495;28;20913;-74
2023/06/21 06:51:26;;;;;;;11.63;7.00;;;;;;;;;;5056008;28;20412;-74
2023/06/21 06:53:52;;;;;;;12.47;7.40;;;;;;;;;;5056237;28;20408;-74
2023/06/21 06:56:18;;;;;;;11.97;7.57;;;;;;;;;;5056500;28;20435;-74
2023/06/21 06:58:44;;;;;;;12.33;7.17;;;;;;;;;;5055777;28;20404;-74
2023/06/21 07:01:11;;;;;;;8.20;6.20;;;;;;;;;;5055243;28;20480;-74
2023/06/21 07:03:37;;;;;;;8.43;7.63;;;;;;;;;;5055204;28;20461;-74
2023/06/21 07:06:03;;;;;;;7.60;6.80;;;;;;;;;;5055076;28;20550;-74
2023/06/21 07:08:28;;;;;;;11.13;7.63;;;;;;;;;;5055391;28;20779;-74
2023/06/21 07:10:55;;;;;;;7.07;6.37;;;;;;;;;;5054993;28;20401;-74
2023/06/21 07:13:23;;;;;;;7.17;6.30;;;;;;;;;;5055899;28;20404;-74
2023/06/21 07:15:49;;;;;;;10.07;6.47;;;;;;;;;;5055637;28;20404;-74
2023/06/21 07:18:15;;;;;;;9.33;6.83;;;;;;;;;;5055673;28;20435;-74
2023/06/21 07:20:41;;;;;;;8.30;7.47;;;;;;;;;;5055622;28;20470;-74
2023/06/21 07:23:07;;;;;;;9.83;7.10;;;;;;;;;;5055195;28;20473;-74
2023/06/21 07:25:33;;;;;;;9.53;7.70;;;;;;;;;;5055385;28;20880;-74
2023/06/21 07:27:59;;;;;;;9.60;7.17;;;;;;;;;;5055356;28;20408;-74
2023/06/21 07:30:25;;;;;;;8.37;7.20;;;;;;;;;;5056026;28;20412;-74
2023/06/21 07:32:51;;;;;;;11.47;7.70;;;;;;;;;;5055409;28;20400;-74
2023/06/21 07:35:17;;;;;;;10.10;7.37;;;;;;;;;;5055141;28;20785;-74
2023/06/21 07:37:43;;;;;;;9.47;6.60;;;;;;;;;;5055093;28;20408;-74
2023/06/21 07:40:10;;;;;;;9.10;6.93;;;;;;;;;;5056818;28;20459;-74
2023/06/21 07:42:37;;;;;;;10.13;7.43;;;;;;;;;;5059880;28;20404;-74
2023/06/21 07:45:03;;;;;;;8.73;7.00;;;;;;;;;;5059057;28;20507;-74
2023/06/21 07:47:29;;;;;;;10.53;7.30;;;;;;;;;;5059474;28;20466;-73
2023/06/21 07:49:55;;;;;;;10.80;7.33;;;;;;;;;;5059284;28;20411;-74
2023/06/21 07:52:21;;;;;;;7.97;7.27;;;;;;;;;;5059036;28;20432;-74
2023/06/21 07:54:50;;;;;;;10.80;7.77;;;;;;;;;;5059062;28;20412;-74
2023/06/21 07:57:16;;;;;;;12.83;7.47;;;;;;;;;;5058973;28;20899;-74
2023/06/21 07:59:43;;;;;;;8.40;7.53;;;;;;;;;;5059141;28;20469;-74
2023/06/21 08:02:13;;;;;;;7.37;6.63;;;;;;;;;;5058806;28;20741;-74
2023/06/21 08:04:42;;;;;;;8.73;6.67;;;;;;;;;;5058694;28;20415;-74
2023/06/21 08:07:08;;;;;;;9.27;7.00;;;;;;;;;;5058575;28;20422;-74
2023/06/21 08:09:34;;;;;;;9.50;6.33;;;;;;;;;;5058981;28;20900;-74
2023/06/21 08:12:00;;;;;;;7.93;6.30;;;;;;;;;;5058716;28;20404;-74
2023/06/21 08:14:26;;;;;;;10.87;7.30;;;;;;;;;;5058543;28;20407;-74
2023/06/21 08:16:52;;;;;;;9.23;6.60;;;;;;;;;;5058947;28;20506;-74
2023/06/21 08:19:18;;;;;;;8.07;6.23;;;;;;;;;;5040416;28;20511;-74
2023/06/21 08:21:44;;;;;;;6.67;6.07;;;;;;;;;;5058530;28;20961;-74
2023/06/21 08:24:10;;;;;;;8.73;6.23;;;;;;;;;;5058508;28;20412;-74
2023/06/21 08:26:36;;;;;;;9.20;6.40;;;;;;;;;;5058318;28;20408;-74
2023/06/21 08:29:02;;;;;;;7.50;6.80;;;;;;;;;;5058422;28;20504;-75
2023/06/21 08:31:28;;;;;;;6.93;6.33;;;;;;;;;;5058127;28;20436;-74
2023/06/21 08:33:54;;;;;;;8.73;6.83;;;;;;;;;;5057960;28;20759;-74
2023/06/21 08:36:20;;;;;;;8.07;7.27;;;;;;;;;;5057780;28;20459;-74
2023/06/21 08:38:46;;;;;;;8.80;6.53;;;;;;;;;;5058279;28;20412;-74
2023/06/21 08:41:12;;;;;;;7.23;6.53;;;;;;;;;;5057747;28;20475;-74
2023/06/21 08:43:38;;;;;;;8.80;7.23;;;;;;;;;;5057559;28;20404;-74
2023/06/21 08:46:06;;;;;;;7.67;6.87;;;;;;;;;;5057244;28;20401;-72
2023/06/21 08:48:32;;;;;;;7.50;5.90;;;;;;;;;;5057460;28;20408;-72
2023/06/21 08:50:59;;;;;;;8.93;7.93;;;;;;;;;;5055898;28;20439;-72
2023/06/21 08:53:31;;;;;;;7.23;6.63;;;;;;;;;;5057203;28;20400;-72
2023/06/21 08:55:57;;;;;;;8.40;7.40;;;;;;;;;;5057128;28;20495;-72
2023/06/21 08:58:25;;;;;;;7.77;7.00;;;;;;;;;;5056728;28;20403;-74
2023/06/21 09:00:53;;;;;;;9.73;7.30;;;;;;;;;;5057380;28;20458;-74
2023/06/21 09:03:45;;;;;;;6.47;5.97;;;;;;;;;;5038906;28;20427;-74
2023/06/21 09:06:15;;;;;;;14.20;7.13;;;;;;;;;;5052958;28;20424;-74
2023/06/21 09:08:42;;;;;;;6.80;6.10;;;;;;;;;;5056726;28;20768;-74
2023/06/21 09:11:08;;;;;;;6.67;6.10;;;;;;;;;;5056462;28;20785;-75
2023/06/21 09:13:35;;;;;;;7.30;6.63;;;;;;;;;;5056248;28;20888;-74
2023/06/21 09:16:03;;;;;;;6.27;5.63;;;;;;;;;;5056502;28;20451;-74
2023/06/21 09:18:35;;;;;;;9.27;7.00;;;;;;;;;;5056795;28;20412;-74
2023/06/21 09:21:02;;;;;;;10.30;7.10;;;;;;;;;;5056341;28;20543;-77
2023/06/21 09:23:28;;;;;;;7.53;6.80;;;;;;;;;;5056117;28;20467;-74
2023/06/21 09:25:54;;;;;;;12.13;7.50;;;;;;;;;;5056359;28;20436;-74
2023/06/21 09:28:20;;;;;;;8.13;7.03;;;;;;;;;;5056620;28;20412;-75
2023/06/21 09:30:46;;;;;;;7.60;6.87;;;;;;;;;;5038441;28;20482;-75
2023/06/21 09:33:12;;;;;;;8.07;7.30;;;;;;;;;;5056174;28;20476;-75
2023/06/21 09:35:38;;;;;;;7.60;6.90;;;;;;;;;;5055805;28;20498;-74
2023/06/21 09:38:21;;;;;;;9.50;8.60;;;;;;;;;;5055646;28;20424;-75
2023/06/21 09:40:47;;;;;;;11.33;7.53;;;;;;;;;;5055660;28;20452;-74
2023/06/21 09:43:13;;;;;;;9.63;7.70;;;;;;;;;;5055583;28;20736;-75
2023/06/21 09:45:39;;;;;;;10.07;9.07;;;;;;;;;;5055537;28;20495;-75
2023/06/21 09:48:05;;;;;;;7.93;6.67;;;;;;;;;;5055287;28;20420;-76
2023/06/21 09:50:41;;;;;;;8.87;7.80;;;;;;;;;;5055178;28;20411;-75
2023/06/21 09:53:11;;;;;;;8.93;7.43;;;;;;;;;;5054657;28;20415;-75
2023/06/21 09:55:37;;;;;;;7.90;7.17;;;;;;;;;;5054829;28;20404;-75
2023/06/21 09:58:03;;;;;;;7.20;6.33;;;;;;;;;;5055230;28;20742;-74
2023/06/21 10:00:35;;;;;;;8.77;7.10;;;;;;;;;;5054858;28;20460;-74
2023/06/21 10:03:01;;;;;;;7.33;6.73;;;;;;;;;;5054722;28;20507;-74
2023/06/21 10:05:27;;;;;;;11.20;7.90;;;;;;;;;;5055149;28;20400;-74
2023/06/21 10:07:53;;;;;;;9.27;6.43;;;;;;;;;;5054777;28;20794;-74
2023/06/21 10:10:19;;;;;;;8.80;6.97;;;;;;;;;;5037259;28;20499;-74
2023/06/21 10:12:55;;;;;;;9.63;7.67;;;;;;;;;;5055056;28;20431;-74
2023/06/21 10:15:21;;;;;;;8.57;6.73;;;;;;;;;;5054520;28;20414;-74
2023/06/21 10:17:47;;;;;;;8.13;7.07;;;;;;;;;;5054905;28;20428;-75
2023/06/21 10:20:14;;;;;;;8.07;7.13;;;;;;;;;;5036880;28;20550;-75
2023/06/21 10:22:41;;;;;;;6.23;5.03;;;;;;;;;;5054668;28;20838;-75
2023/06/21 10:25:07;;;;;;;7.20;6.50;;;;;;;;;;5054477;28;20479;-76
2023/06/21 10:27:34;;;;;;;7.13;6.50;;;;;;;;;;5054536;28;20415;-74
2023/06/21 10:30:00;;;;;;;8.87;7.20;;;;;;;;;;5054503;28;20816;-74
2023/06/21 10:32:28;;;;;;;11.17;9.10;;;;;;;;;;5054275;28;20408;-75
2023/06/21 10:34:55;;;;;;;10.13;8.43;;;;;;;;;;5054280;28;20406;-75
2023/06/21 10:37:33;;;;;;;10.13;8.97;;;;;;;;;;5053674;28;20817;-75
2023/06/21 10:40:03;;;;;;;7.43;6.73;;;;;;;;;;5054407;28;20486;-74
2023/06/21 10:42:31;;;;;;;8.60;7.07;;;;;;;;;;5036498;28;20480;-75
2023/06/21 10:44:58;;;;;;;7.53;6.93;;;;;;;;;;5054417;28;20480;-74
2023/06/21 10:47:25;;;;;;;7.87;7.10;;;;;;;;;;5054349;28;20530;-75
2023/06/21 10:49:52;;;;;;;7.83;6.80;;;;;;;;;;5054208;28;20409;-74
2023/06/21 10:52:18;;;;;;;11.43;7.77;;;;;;;;;;5054011;28;20409;-75
2023/06/21 10:54:45;;;;;;;9.53;8.47;;;;;;;;;;5054387;28;20729;-74
2023/06/21 10:57:12;;;;;;;8.30;7.37;;;;;;;;;;5053803;28;20408;-74
2023/06/21 10:59:39;;;;;;;8.60;7.70;;;;;;;;;;5054132;28;20466;-74
2023/06/21 11:02:05;;;;;;;9.13;8.13;;;;;;;;;;5053905;28;20416;-74
2023/06/21 11:04:31;;;;;;;7.70;7.00;;;;;;;;;;5053924;28;20541;-75
2023/06/21 11:07:00;;;;;;;8.33;7.53;;;;;;;;;;5054405;28;20887;-74
2023/06/21 11:09:26;;;;;;;9.83;8.33;;;;;;;;;;5053850;28;20400;-75
2023/06/21 11:11:53;;;;;;;8.57;7.77;;;;;;;;;;5054025;28;20407;-75
2023/06/21 11:14:30;;;;;;;10.17;7.00;;;;;;;;;;5052744;28;20419;-75
2023/06/21 11:17:06;;;;;;;8.30;6.73;;;;;;;;;;5054587;28;20419;-75
2023/06/21 11:19:32;;;;;;;8.63;7.60;;;;;;;;;;5053550;28;20546;-75
2023/06/21 11:21:58;;;;;;;9.57;7.23;;;;;;;;;;5053906;28;20826;-75
2023/06/21 11:24:26;;;;;;;7.53;6.93;;;;;;;;;;5053574;28;20487;-75
2023/06/21 11:26:57;;;;;;;7.17;6.53;;;;;;;;;;5053758;28;20410;-75
2023/06/21 11:29:25;;;;;;;8.03;7.23;;;;;;;;;;5035827;28;20420;-75
2023/06/21 11:32:06;;;;;;;6.90;6.30;;;;;;;;;;5053762;28;20411;-75
2023/06/21 11:34:32;;;;;;;7.40;6.23;;;;;;;;;;5053846;28;20404;-75
2023/06/21 11:37:18;;;;;;;6.93;6.33;;;;;;;;;;5053685;28;21078;-74
2023/06/21 11:39:45;;;;;;;11.00;6.03;;;;;;;;;;5053607;28;20908;-75
2023/06/21 11:42:15;;;;;;;6.03;5.43;;;;;;;;;;5053547;28;20424;-76
2023/06/21 11:44:41;;;;;;;6.10;5.50;;;;;;;;;;5053821;28;20388;-75
2023/06/21 11:47:17;;;;;;;6.40;5.80;;;;;;;;;;5054067;28;20439;-74
2023/06/21 11:49:48;;;;;;;6.37;5.73;;;;;;;;;;5053388;28;20431;-75
2023/06/21 11:52:14;;;;;;;7.10;5.53;;;;;;;;;;5053160;28;20781;-76
2023/06/21 11:54:40;;;;;;;6.70;5.90;;;;;;;;;;5053621;28;20423;-75
2023/06/21 11:57:07;;;;;;;5.50;5.00;;;;;;;;;;5053485;28;20408;-75
2023/06/21 11:59:36;;;;;;;5.57;5.07;;;;;;;;;;5053094;28;20977;-75
2023/06/21 12:02:13;;;;;;;7.40;5.33;;;;;;;;;;5053399;28;20416;-75
2023/06/21 12:04:40;;;;;;;5.90;5.17;;;;;;;;;;5053421;28;20440;-75
2023/06/21 12:07:06;;;;;;;5.80;5.20;;;;;;;;;;5053705;28;20396;-75
2023/06/21 12:09:32;;;;;;;6.23;5.00;;;;;;;;;;5053113;28;20434;-75
2023/06/21 12:11:58;;;;;;;6.20;5.23;;;;;;;;;;5053673;28;20408;-75
2023/06/21 12:14:24;;;;;;;7.80;4.93;;;;;;;;;;5052937;28;20426;-75
2023/06/21 12:16:50;;;;;;;7.60;5.67;;;;;;;;;;5053214;28;20416;-75
2023/06/21 12:19:16;;;;;;;7.00;4.87;;;;;;;;;;5052706;28;20407;-75
2023/06/21 12:21:42;;;;;;;6.70;6.00;;;;;;;;;;5053062;28;20412;-75
2023/06/21 12:24:08;;;;;;;6.03;5.63;;;;;;;;;;5053226;28;20404;-75
2023/06/21 12:26:48;;;;;;;6.80;6.10;;;;;;;;;;5055593;28;20895;-75
2023/06/21 12:29:14;;;;;;;5.30;4.77;;;;;;;;;;5056700;28;20843;-75
2023/06/21 12:31:43;;;;;;;4.83;4.43;;;;;;;;;;5056478;28;20400;-75
2023/06/21 12:34:14;;;;;;;5.50;4.77;;;;;;;;;;5057080;28;20427;-75
2023/06/21 12:36:40;;;;;;;5.47;4.97;;;;;;;;;;5056687;28;20991;-75
2023/06/21 12:39:08;;;;;;;8.33;5.20;;;;;;;;;;5056426;28;20424;-73
2023/06/21 12:41:34;;;;;;;5.33;4.83;;;;;;;;;;5055772;28;20408;-73
2023/06/21 12:44:01;;;;;;;5.00;4.60;;;;;;;;;;5055252;28;20460;-73
2023/06/21 12:46:28;;;;;;;5.33;4.83;;;;;;;;;;5059747;28;20436;-73
2023/06/21 12:48:55;;;;;;;4.93;4.53;;;;;;;;;;5056164;28;20767;-73
2023/06/21 12:51:32;;;;;;;5.23;4.83;;;;;;;;;;5054404;28;20435;-74
2023/06/21 12:54:02;;;;;;;5.30;4.90;;;;;;;;;;5055269;28;20415;-76
2023/06/21 12:56:30;;;;;;;5.30;4.83;;;;;;;;;;5055430;28;20458;-76
2023/06/21 12:58:55;;;;;;;4.70;4.30;;;;;;;;;;5054518;28;20802;-76
2023/06/21 13:01:21;;;;;;;6.67;4.60;;;;;;;;;;5054718;28;20493;-77
2023/06/21 13:03:47;;;;;;;6.70;4.20;;;;;;;;;;5053123;28;20746;-76
2023/06/21 13:06:13;;;;;;;5.10;4.60;;;;;;;;;;5055675;28;20419;-75
2023/06/21 13:08:39;;;;;;;7.33;4.90;;;;;;;;;;5054857;28;20411;-76
2023/06/21 13:11:07;;;;;;;6.70;4.90;;;;;;;;;;5051921;28;20420;-76
2023/06/21 13:13:33;;;;;;;5.50;4.57;;;;;;;;;;5054588;28;20415;-75
2023/06/21 13:15:59;;;;;;;4.80;4.30;;;;;;;;;;5055239;28;20424;-76
2023/06/21 13:18:27;;;;;;;14.23;5.10;;;;;;;;;;5054188;28;20774;-76
2023/06/21 13:20:55;;;;;;;6.87;4.60;;;;;;;;;;5054557;28;20997;-75
2023/06/21 13:23:21;;;;;;;6.23;5.03;;;;;;;;;;5054782;28;20419;-76
2023/06/21 13:25:50;;;;;;;5.10;4.70;;;;;;;;;;5036235;28;20416;-77
2023/06/21 13:28:16;;;;;;;4.90;4.47;;;;;;;;;;5053787;28;20510;-75
2023/06/21 13:30:42;;;;;;;6.97;4.00;;;;;;;;;;5054617;28;20466;-73
2023/06/21 13:33:08;;;;;;;4.27;3.97;;;;;;;;;;5055444;28;20907;-73
2023/06/21 13:35:34;;;;;;;5.40;4.43;;;;;;;;;;5054650;28;20467;-73
2023/06/21 13:38:00;;;;;;;4.80;4.40;;;;;;;;;;5054393;28;20805;-75
2023/06/21 13:40:26;;;;;;;8.53;4.37;;;;;;;;;;5054520;28;20456;-76
2023/06/21 13:42:52;;;;;;;4.90;4.40;;;;;;;;;;5037103;28;20416;-75
2023/06/21 13:45:18;;;;;;;5.20;4.37;;;;;;;;;;5054965;28;20400;-76
2023/06/21 13:47:44;;;;;;;4.67;4.10;;;;;;;;;;5055042;28;20935;-75
2023/06/21 13:50:11;;;;;;;5.23;4.63;;;;;;;;;;5054978;28;20404;-75
2023/06/21 13:52:37;;;;;;;4.87;4.03;;;;;;;;;;5054585;28;20408;-76
2023/06/21 13:55:03;;;;;;;4.43;3.80;;;;;;;;;;5054834;28;20411;-75
2023/06/21 13:57:29;;;;;;;5.83;4.20;;;;;;;;;;5054683;28;20458;-76
2023/06/21 13:59:56;;;;;;;5.70;4.47;;;;;;;;;;5054632;28;20462;-73
2023/06/21 14:02:23;;;;;;;5.53;4.23;;;;;;;;;;5054621;28;20416;-73
2023/06/21 14:04:49;;;;;;;6.03;4.27;;;;;;;;;;5054610;28;20408;-76
2023/06/21 14:07:16;;;;;;;4.57;4.10;;;;;;;;;;5054620;28;20762;-77
2023/06/21 14:09:42;;;;;;;5.30;4.10;;;;;;;;;;5054247;28;20414;-76
2023/06/21 14:12:09;;;;;;;4.03;3.73;;;;;;;;;;5054707;28;20435;-76
2023/06/21 14:14:38;;;;;;;7.67;4.13;;;;;;;;;;5036365;28;20920;-76
2023/06/21 14:17:06;;;;;;;4.30;4.00;;;;;;;;;;5054483;28;20435;-76
2023/06/21 14:19:32;;;;;;;3.63;3.33;;;;;;;;;;5053878;28;20522;-76
2023/06/21 14:21:58;;;;;;;5.10;4.30;;;;;;;;;;5054145;28;20495;-76
2023/06/21 14:24:24;;;;;;;6.10;4.00;;;;;;;;;;5054439;28;20841;-76
2023/06/21 14:26:50;;;;;;;4.73;3.90;;;;;;;;;;5054405;28;20495;-76
2023/06/21 14:29:16;;;;;;;4.70;4.30;;;;;;;;;;5054499;28;20405;-76
2023/06/21 14:31:42;;;;;;;4.30;3.20;;;;;;;;;;5054028;28;20415;-76
2023/06/21 14:34:08;;;;;;;5.77;3.87;;;;;;;;;;5054223;28;20408;-75
2023/06/21 14:36:34;;;;;;;4.83;4.33;;;;;;;;;;5053747;28;20465;-76
2023/06/21 14:39:00;;;;;;;4.13;3.77;;;;;;;;;;5054107;28;20400;-75
2023/06/21 14:41:26;;;;;;;4.43;4.03;;;;;;;;;;5053885;28;20541;-76